Time;durP1;ratioP1;P1;durP2;ratioP2;P2;SDS_P1;SDS_P2;PMS_P1;PMS_P2;Temp;Humidity;BMP_temperature;BMP_pressure;BME280_temperature;BME280_humidity;BME280_pressure;Samples;Min_cycle;Max_cycle;Signal;HPM_P1;HPM_P2
2022/04/20 00:01:10;;;;;;;9.15;3.28;;;8.30;99.90;;;;;;5058529;28;20394;-81
2022/04/20 00:03:37;;;;;;;8.20;3.22;;;7.30;99.90;;;;;;5053531;28;20037;-81
2022/04/20 00:06:03;;;;;;;7.78;3.22;;;7.30;99.90;;;;;;5047539;28;20037;-82
2022/04/20 00:08:29;;;;;;;10.23;3.55;;;7.30;99.90;;;;;;5066830;28;20040;-82
2022/04/20 00:10:55;;;;;;;8.65;3.28;;;7.30;99.90;;;;;;5041916;28;20086;-81
2022/04/20 00:13:21;;;;;;;8.55;3.67;;;7.30;99.90;;;;;;5056379;28;20068;-82
2022/04/20 00:15:46;;;;;;;13.55;3.28;;;8.00;99.90;;;;;;5044266;28;20051;-81
2022/04/20 00:18:12;;;;;;;8.82;3.60;;;8.10;99.90;;;;;;5043755;28;20094;-82
2022/04/20 00:20:38;;;;;;;7.70;3.13;;;7.20;99.90;;;;;;5049290;28;21213;-81
2022/04/20 00:23:03;;;;;;;7.78;3.22;;;8.30;99.90;;;;;;5067774;28;20063;-82
2022/04/20 00:25:29;;;;;;;7.97;3.47;;;7.10;99.90;;;;;;5065020;28;20051;-81
2022/04/20 00:27:55;;;;;;;8.60;3.47;;;7.10;99.90;;;;;;5030170;28;20047;-81
2022/04/20 00:30:20;;;;;;;9.88;3.40;;;7.00;99.90;;;;;;5045256;28;20455;-82
2022/04/20 00:32:46;;;;;;;9.07;3.53;;;7.00;99.90;;;;;;5060182;28;20097;-81
2022/04/20 00:35:12;;;;;;;8.95;3.55;;;6.90;99.90;;;;;;5042136;28;20028;-81
2022/04/20 00:37:41;;;;;;;8.20;3.38;;;7.00;99.90;;;;;;5071978;28;20044;-81
2022/04/20 00:40:07;;;;;;;9.00;3.50;;;6.90;99.90;;;;;;5055444;28;20041;-81
2022/04/20 00:42:37;;;;;;;9.55;3.50;;;6.90;99.90;;;;;;5062061;28;20120;-81
2022/04/20 00:45:03;;;;;;;9.23;3.63;;;6.90;99.90;;;;;;5072230;28;20040;-81
2022/04/20 00:47:29;;;;;;;9.88;3.30;;;6.80;99.90;;;;;;5040994;28;20416;-81
2022/04/20 00:49:56;;;;;;;9.90;3.70;;;7.90;99.90;;;;;;5051818;28;21232;-81
2022/04/20 00:52:22;;;;;;;9.52;3.10;;;6.80;99.90;;;;;;5060233;28;20098;-81
2022/04/20 00:54:48;;;;;;;9.35;3.85;;;6.80;99.90;;;;;;5034506;28;20040;-81
2022/04/20 00:57:15;;;;;;;8.00;3.55;;;7.50;99.90;;;;;;5058565;28;20115;-81
2022/04/20 00:59:42;;;;;;;8.70;3.67;;;6.80;99.90;;;;;;5062402;28;20057;-81
2022/04/20 01:02:08;;;;;;;9.35;3.70;;;6.80;99.90;;;;;;5070912;28;20146;-81
2022/04/20 01:04:34;;;;;;;10.30;3.70;;;6.80;99.90;;;;;;5052601;28;20567;-81
2022/04/20 01:07:09;;;;;;;8.55;3.63;;;6.90;99.90;;;;;;5075018;28;20039;-81
2022/04/20 01:09:35;;;;;;;9.73;3.65;;;6.80;99.90;;;;;;5085983;28;20392;-82
2022/04/20 01:12:00;;;;;;;9.43;3.60;;;7.00;99.90;;;;;;5055473;28;20040;-81
2022/04/20 01:14:26;;;;;;;10.32;3.35;;;6.70;99.90;;;;;;5046806;28;20033;-81
2022/04/20 01:16:52;;;;;;;10.02;3.50;;;6.70;99.90;;;;;;5045330;28;20051;-81
2022/04/20 01:19:19;;;;;;;10.75;3.90;;;7.60;99.90;;;;;;5046749;28;20076;-81
2022/04/20 01:21:45;;;;;;;8.88;3.67;;;6.70;99.90;;;;;;5064179;28;20038;-82
2022/04/20 01:24:11;;;;;;;10.18;3.50;;;6.70;99.90;;;;;;5068385;28;20099;-81
2022/04/20 01:26:39;;;;;;;8.65;3.40;;;6.70;99.90;;;;;;5052957;28;20039;-81
2022/04/20 01:29:06;;;;;;;10.98;3.67;;;6.70;99.90;;;;;;5050065;28;20074;-81
2022/04/20 01:31:31;;;;;;;9.27;3.83;;;6.60;99.90;;;;;;5088830;28;20046;-81
2022/04/20 01:33:57;;;;;;;8.90;3.55;;;6.60;99.90;;;;;;5075238;28;20036;-81
2022/04/20 01:36:23;;;;;;;8.63;3.40;;;7.40;99.90;;;;;;5051538;28;20436;-82
2022/04/20 01:38:49;;;;;;;10.85;4.25;;;6.60;99.90;;;;;;5069279;28;20036;-81
2022/04/20 01:41:15;;;;;;;10.77;3.88;;;6.60;99.90;;;;;;5050365;28;20389;-81
2022/04/20 01:43:41;;;;;;;9.38;4.07;;;7.50;99.90;;;;;;5058171;28;20042;-81
2022/04/20 01:46:07;;;;;;;9.25;3.45;;;6.60;99.90;;;;;;5043141;28;20037;-81
2022/04/20 01:48:32;;;;;;;8.95;3.55;;;6.50;99.90;;;;;;5053697;28;20071;-81
2022/04/20 01:53:42;;;;;;;9.05;3.75;;;6.50;99.90;;;;;;5064226;28;20047;-81
2022/04/20 01:56:08;;;;;;;9.13;3.88;;;6.50;99.90;;;;;;5048992;28;20040;-81
2022/04/20 01:58:37;;;;;;;10.15;3.92;;;6.50;99.90;;;;;;5039473;28;20095;-81
2022/04/20 02:02:34;;;;;;;10.38;3.60;;;6.40;99.90;;;;;;5063636;28;20120;-82
2022/04/20 02:03:48;;;;;;;9.20;3.42;;;6.40;99.90;;;;;;5065206;28;20033;-81
2022/04/20 02:06:14;;;;;;;8.15;3.38;;;6.40;99.90;;;;;;5053082;28;20038;-81
2022/04/20 02:08:40;;;;;;;7.97;3.45;;;6.40;99.90;;;;;;5039723;28;20123;-81
2022/04/20 02:11:06;;;;;;;8.13;3.50;;;6.40;99.90;;;;;;5075624;28;20052;-81
2022/04/20 02:13:32;;;;;;;10.60;3.75;;;7.10;99.90;;;;;;5069005;28;20044;-81
2022/04/20 02:15:59;;;;;;;8.95;3.60;;;6.60;99.90;;;;;;5046958;28;20071;-81
2022/04/20 02:18:24;;;;;;;8.95;3.67;;;6.30;99.90;;;;;;5060092;28;20044;-81
2022/04/20 02:20:50;;;;;;;9.20;3.65;;;6.30;99.90;;;;;;5050960;28;20037;-82
2022/04/20 02:23:16;;;;;;;8.70;3.55;;;6.80;99.90;;;;;;5068066;28;20032;-81
2022/04/20 02:25:42;;;;;;;9.95;4.20;;;6.50;99.90;;;;;;5057691;28;20112;-81
2022/04/20 02:28:07;;;;;;;8.35;3.85;;;6.70;99.90;;;;;;5042372;28;20040;-81
2022/04/20 02:30:33;;;;;;;8.80;3.90;;;6.80;99.90;;;;;;5062787;28;20043;-81
2022/04/20 02:32:59;;;;;;;8.05;3.60;;;6.10;99.90;;;;;;5045650;28;20036;-81
2022/04/20 02:35:27;;;;;;;9.18;3.70;;;6.90;99.90;;;;;;5077321;28;20097;-81
2022/04/20 02:37:53;;;;;;;8.77;3.60;;;6.10;99.90;;;;;;5050523;28;20036;-81
2022/04/20 02:40:19;;;;;;;9.00;3.60;;;6.00;99.90;;;;;;5069292;28;20040;-81
2022/04/20 02:42:45;;;;;;;8.95;3.33;;;6.00;99.90;;;;;;5067713;28;20028;-80
2022/04/20 02:45:11;;;;;;;11.10;3.70;;;6.00;99.90;;;;;;5064045;28;20043;-81
2022/04/20 02:47:37;;;;;;;9.82;3.75;;;6.90;99.90;;;;;;5054214;28;20058;-81
2022/04/20 02:50:03;;;;;;;9.70;3.70;;;5.90;99.90;;;;;;5059225;28;20400;-81
2022/04/20 02:52:29;;;;;;;10.10;3.83;;;5.90;99.90;;;;;;5045250;28;20067;-80
2022/04/20 02:54:54;;;;;;;10.35;3.60;;;5.90;99.90;;;;;;5045547;28;20515;-81
2022/04/20 02:57:20;;;;;;;8.65;3.78;;;5.90;99.90;;;;;;5043675;28;20098;-81
2022/04/20 02:59:46;;;;;;;9.43;3.58;;;5.90;99.90;;;;;;5057769;28;20056;-81
2022/04/20 03:02:12;;;;;;;8.65;3.65;;;5.80;99.90;;;;;;5059546;28;20116;-81
2022/04/20 03:04:38;;;;;;;8.98;3.65;;;6.90;99.90;;;;;;5064210;28;20082;-81
2022/04/20 03:07:03;;;;;;;9.48;3.90;;;6.20;99.90;;;;;;5045445;28;20035;-81
2022/04/20 03:09:29;;;;;;;9.45;3.90;;;5.80;99.90;;;;;;5066032;28;20032;-82
2022/04/20 03:11:55;;;;;;;9.52;3.70;;;5.80;99.90;;;;;;5058623;28;20044;-81
2022/04/20 03:14:21;;;;;;;9.98;3.72;;;5.90;99.90;;;;;;5060321;28;20332;-81
2022/04/20 03:16:47;;;;;;;9.00;3.58;;;5.80;99.90;;;;;;5078000;28;20534;-81
2022/04/20 03:19:13;;;;;;;8.88;4.10;;;6.70;99.90;;;;;;5065153;28;20214;-81
2022/04/20 03:21:38;;;;;;;10.20;3.88;;;5.80;99.90;;;;;;5041638;28;20481;-81
2022/04/20 03:24:05;;;;;;;9.85;3.92;;;5.70;99.90;;;;;;5059881;28;20046;-81
2022/04/20 03:26:30;;;;;;;9.98;3.90;;;5.70;99.90;;;;;;5056184;28;20078;-81
2022/04/20 03:28:56;;;;;;;9.45;3.90;;;6.50;99.90;;;;;;5057139;28;20466;-81
2022/04/20 03:31:22;;;;;;;10.35;3.63;;;5.80;99.90;;;;;;5060276;28;20085;-81
2022/04/20 03:33:47;;;;;;;9.68;4.10;;;5.70;99.90;;;;;;5068352;28;20412;-81
2022/04/20 03:36:13;;;;;;;9.77;3.97;;;5.90;99.90;;;;;;5066682;28;20510;-81
2022/04/20 03:38:39;;;;;;;9.10;3.83;;;5.60;99.90;;;;;;5045569;28;20071;-81
2022/04/20 03:41:05;;;;;;;9.23;3.80;;;6.60;99.90;;;;;;5026519;28;20195;-81
2022/04/20 03:43:31;;;;;;;11.15;3.88;;;5.60;99.90;;;;;;5054578;28;20503;-81
2022/04/20 03:45:57;;;;;;;9.45;4.22;;;5.80;99.90;;;;;;5049960;28;20246;-81
2022/04/20 03:48:23;;;;;;;8.90;3.90;;;5.60;99.90;;;;;;5069623;28;20674;-81
2022/04/20 03:50:50;;;;;;;10.00;3.80;;;6.20;99.90;;;;;;5047110;28;20036;-81
2022/04/20 03:53:16;;;;;;;9.68;4.20;;;5.50;99.90;;;;;;5076529;28;20157;-81
2022/04/20 03:55:43;;;;;;;9.95;4.03;;;5.80;99.90;;;;;;5074934;28;20047;-81
2022/04/20 03:58:08;;;;;;;9.18;3.92;;;6.50;99.90;;;;;;5051404;28;20077;-81
2022/04/20 04:00:34;;;;;;;10.85;4.05;;;6.20;99.90;;;;;;5057871;28;20119;-81
2022/04/20 04:03:00;;;;;;;11.35;3.95;;;6.40;99.90;;;;;;5048960;28;20100;-81
2022/04/20 04:05:26;;;;;;;9.00;4.07;;;5.50;99.90;;;;;;5078300;28;20519;-81
2022/04/20 04:07:51;;;;;;;9.52;3.97;;;5.40;99.90;;;;;;5067120;28;20071;-82
2022/04/20 04:10:18;;;;;;;8.55;3.97;;;5.40;99.90;;;;;;5060792;28;20449;-82
2022/04/20 04:12:44;;;;;;;9.32;4.05;;;5.40;99.90;;;;;;5064987;28;20040;-81
2022/04/20 04:15:10;;;;;;;8.75;3.97;;;5.30;99.90;;;;;;5051740;28;20123;-81
2022/04/20 04:17:36;;;;;;;9.93;4.10;;;5.40;99.90;;;;;;5061695;28;20036;-81
2022/04/20 04:20:02;;;;;;;10.25;4.22;;;5.60;99.90;;;;;;5088653;28;20036;-81
2022/04/20 04:22:28;;;;;;;9.70;4.18;;;5.40;99.90;;;;;;5073513;28;20036;-81
2022/04/20 04:24:54;;;;;;;11.10;4.15;;;5.30;99.90;;;;;;5049433;28;20255;-81
2022/04/20 04:27:21;;;;;;;9.25;4.05;;;5.30;99.90;;;;;;5068209;28;20477;-82
2022/04/20 04:29:46;;;;;;;10.38;4.10;;;5.30;99.90;;;;;;5059536;28;20053;-81
2022/04/20 04:32:13;;;;;;;9.65;4.32;;;5.30;99.90;;;;;;5045231;28;20042;-81
2022/04/20 04:34:39;;;;;;;9.25;4.13;;;5.30;99.90;;;;;;5085524;28;20051;-81
2022/04/20 04:37:06;;;;;;;10.18;3.90;;;6.40;99.90;;;;;;5071949;28;20182;-81
2022/04/20 04:39:32;;;;;;;9.32;4.30;;;5.70;99.90;;;;;;5066744;28;20104;-81
2022/04/20 04:42:00;;;;;;;9.68;3.92;;;5.60;99.90;;;;;;5066764;28;20035;-81
2022/04/20 04:44:26;;;;;;;8.80;3.97;;;5.30;99.90;;;;;;5046562;28;20432;-81
2022/04/20 04:49:37;;;;;;;9.90;4.22;;;6.70;99.90;;;;;;5061203;28;20330;-81
2022/04/20 04:52:06;;;;;;;10.07;4.80;;;5.20;99.90;;;;;;5072146;28;20051;-81
2022/04/20 04:54:33;;;;;;;9.43;4.10;;;5.20;99.90;;;;;;5058530;28;20485;-81
2022/04/20 04:56:59;;;;;;;9.48;3.95;;;5.30;99.90;;;;;;5076696;28;20236;-81
2022/04/20 04:59:25;;;;;;;10.27;4.18;;;5.70;99.90;;;;;;5059158;28;20061;-81
2022/04/20 05:01:50;;;;;;;10.30;4.13;;;6.30;99.90;;;;;;5050932;28;20040;-81
2022/04/20 05:04:16;;;;;;;8.82;4.07;;;6.00;99.90;;;;;;5055385;28;20037;-80
2022/04/20 05:06:43;;;;;;;10.48;3.90;;;5.30;99.90;;;;;;5063820;28;20047;-81
2022/04/20 05:09:09;;;;;;;8.60;4.00;;;5.60;99.90;;;;;;5068506;28;20142;-81
2022/04/20 05:11:34;;;;;;;12.02;4.22;;;5.90;99.90;;;;;;5052133;28;20525;-81
2022/04/20 05:14:00;;;;;;;8.82;4.03;;;6.40;99.90;;;;;;5066828;28;20393;-81
2022/04/20 05:16:26;;;;;;;10.50;4.15;;;5.70;99.90;;;;;;5047000;28;20421;-81
2022/04/20 05:18:52;;;;;;;10.45;4.10;;;5.60;99.90;;;;;;5057395;28;20039;-81
2022/04/20 05:21:18;;;;;;;8.68;3.60;;;5.70;99.90;;;;;;5065227;28;20345;-81
2022/04/20 05:23:44;;;;;;;9.88;4.10;;;6.60;99.90;;;;;;5068682;28;20305;-81
2022/04/20 05:26:10;;;;;;;9.23;4.05;;;5.80;99.90;;;;;;5060432;28;20071;-80
2022/04/20 05:28:35;;;;;;;9.57;4.05;;;5.90;99.90;;;;;;5050773;28;20028;-80
2022/04/20 05:31:01;;;;;;;9.73;3.88;;;6.10;99.90;;;;;;5048851;28;20044;-81
2022/04/20 05:33:27;;;;;;;8.90;3.85;;;6.10;99.90;;;;;;5066331;28;20040;-81
2022/04/20 05:35:52;;;;;;;10.27;4.35;;;6.20;99.90;;;;;;5061287;28;20036;-81
2022/04/20 05:43:49;;;;;;;9.18;3.90;;;6.60;99.90;;;;;;5075754;28;20068;-80
2022/04/20 05:46:15;;;;;;;11.00;4.30;;;6.70;99.90;;;;;;5059466;28;20555;-81
2022/04/20 05:48:40;;;;;;;9.55;3.95;;;6.80;99.90;;;;;;5052497;28;20039;-80
2022/04/20 05:51:07;;;;;;;9.88;4.07;;;6.90;99.90;;;;;;5044109;28;20048;-81
2022/04/20 05:53:33;;;;;;;10.82;4.28;;;7.20;99.90;;;;;;5062223;28;20038;-80
2022/04/20 05:55:59;;;;;;;9.98;3.97;;;7.10;99.90;;;;;;5044866;28;20044;-81
2022/04/20 05:58:25;;;;;;;9.82;4.40;;;7.30;99.90;;;;;;5044009;28;20064;-81
2022/04/20 06:00:50;;;;;;;9.25;4.18;;;7.40;99.90;;;;;;5074441;28;20075;-81
2022/04/20 06:03:16;;;;;;;9.77;4.57;;;8.10;99.90;;;;;;5056035;28;20398;-81
2022/04/20 06:05:42;;;;;;;10.20;4.32;;;7.70;99.90;;;;;;5051807;28;20071;-81
2022/04/20 06:08:08;;;;;;;10.38;4.40;;;7.90;99.90;;;;;;5053348;28;20036;-81
2022/04/20 06:10:34;;;;;;;11.35;4.90;;;8.00;99.90;;;;;;5055404;28;20066;-82
2022/04/20 06:13:00;;;;;;;9.70;4.70;;;8.60;99.90;;;;;;5042900;28;20511;-82
2022/04/20 06:15:26;;;;;;;9.02;4.15;;;8.20;99.90;;;;;;5045704;28;20048;-81
2022/04/20 06:17:51;;;;;;;9.82;4.38;;;8.30;99.90;;;;;;5075712;28;20551;-82
2022/04/20 06:20:17;;;;;;;10.43;4.20;;;8.40;99.90;;;;;;5048281;28;20051;-81
2022/04/20 06:22:43;;;;;;;9.40;4.75;;;8.50;99.90;;;;;;5062659;28;20484;-82
2022/04/20 06:25:09;;;;;;;10.20;4.40;;;8.60;99.90;;;;;;5049685;28;20051;-82
2022/04/20 06:27:35;;;;;;;9.50;4.40;;;8.70;99.90;;;;;;5079146;28;20076;-81
2022/04/20 06:30:00;;;;;;;10.20;4.38;;;8.80;99.90;;;;;;5071220;28;20040;-82
2022/04/20 06:32:27;;;;;;;9.73;4.30;;;8.90;99.90;;;;;;5035341;28;20043;-81
2022/04/20 06:34:54;;;;;;;10.00;3.88;;;8.90;99.90;;;;;;5081456;28;20127;-81
2022/04/20 06:37:23;;;;;;;9.00;4.00;;;9.00;99.90;;;;;;5067640;28;20082;-82
2022/04/20 06:39:51;;;;;;;12.30;4.20;;;9.10;99.90;;;;;;5060383;28;20028;-82
2022/04/20 06:42:20;;;;;;;11.70;4.05;;;9.30;99.90;;;;;;5046941;28;20229;-81
2022/04/20 06:44:45;;;;;;;12.73;4.28;;;9.40;99.90;;;;;;5069177;28;20047;-82
2022/04/20 06:47:11;;;;;;;9.32;3.80;;;9.50;99.90;;;;;;5056516;28;20649;-84
2022/04/20 06:49:37;;;;;;;9.75;3.90;;;10.30;99.90;;;;;;5048351;28;20037;-81
2022/04/20 07:00:18;;;;;;;11.32;4.32;;;10.00;99.90;;;;;;5060980;28;20215;-81
2022/04/20 07:02:44;;;;;;;10.50;3.83;;;10.00;99.90;;;;;;5057719;28;20265;-82
2022/04/20 07:05:10;;;;;;;9.80;3.75;;;10.20;99.90;;;;;;5070590;28;20036;-82
2022/04/20 07:07:36;;;;;;;8.75;4.03;;;10.20;99.90;;;;;;5060950;28;20453;-82
2022/04/20 07:10:05;;;;;;;11.07;4.15;;;10.20;99.90;;;;;;5044880;28;20036;-82
2022/04/20 07:12:31;;;;;;;11.55;4.13;;;10.40;99.90;;;;;;5060636;28;20040;-82
2022/04/20 07:14:58;;;;;;;9.50;3.70;;;10.40;99.90;;;;;;5055696;28;20063;-83
2022/04/20 07:17:23;;;;;;;8.55;3.20;;;10.40;99.90;;;;;;5064861;28;20488;-82
2022/04/20 07:19:49;;;;;;;9.15;3.67;;;10.50;99.90;;;;;;5049361;28;20046;-82
2022/04/20 07:22:15;;;;;;;10.52;3.80;;;10.50;99.90;;;;;;5058614;28;20293;-81
2022/04/20 07:24:41;;;;;;;10.63;3.30;;;10.50;99.90;;;;;;5043500;28;20040;-83
2022/04/20 07:27:07;;;;;;;8.85;3.45;;;10.70;99.90;;;;;;5076751;28;20050;-81
2022/04/20 07:29:32;;;;;;;8.93;3.30;;;10.80;99.90;;;;;;5065986;28;20040;-82
2022/04/20 07:31:58;;;;;;;10.45;3.45;;;10.80;99.90;;;;;;5053825;28;20063;-82
2022/04/20 07:34:24;;;;;;;7.78;3.03;;;11.00;99.90;;;;;;5072205;28;20040;-82
2022/04/20 07:36:49;;;;;;;9.00;3.38;;;11.00;99.90;;;;;;5055557;28;20032;-82
2022/04/20 07:39:15;;;;;;;7.75;3.08;;;11.10;99.90;;;;;;5051569;28;20040;-82
2022/04/20 07:41:41;;;;;;;7.53;3.08;;;11.10;99.90;;;;;;5057827;28;20036;-82
2022/04/20 07:44:07;;;;;;;8.38;3.28;;;11.20;99.90;;;;;;5036247;28;20047;-81
2022/04/20 07:46:32;;;;;;;8.45;2.90;;;11.30;99.90;;;;;;5055497;28;20384;-82
2022/04/20 07:50:17;;;;;;;10.52;3.05;;;11.40;99.90;;;;;;5068943;28;20044;-82
2022/04/20 07:51:44;;;;;;;8.23;3.10;;;11.50;99.90;;;;;;5084390;28;20044;-82
2022/04/20 07:54:09;;;;;;;7.65;3.00;;;11.50;99.90;;;;;;5043464;28;20044;-82
2022/04/20 07:56:35;;;;;;;8.15;3.20;;;11.60;99.90;;;;;;5046206;28;20040;-82
2022/04/20 07:59:01;;;;;;;9.88;2.95;;;11.70;99.90;;;;;;5056468;28;20290;-82
2022/04/20 08:01:26;;;;;;;7.45;2.78;;;11.70;99.90;;;;;;5065138;28;20048;-83
2022/04/20 08:03:52;;;;;;;6.65;2.60;;;11.80;99.90;;;;;;5047175;28;20066;-83
2022/04/20 08:06:18;;;;;;;7.63;2.75;;;11.90;99.90;;;;;;5055566;28;20036;-82
2022/04/20 08:08:44;;;;;;;5.90;2.30;;;12.10;99.90;;;;;;5066632;28;20178;-83
2022/04/20 08:11:09;;;;;;;6.50;2.50;;;12.20;99.90;;;;;;5025936;28;20043;-83
2022/04/20 08:16:20;;;;;;;6.95;2.70;;;12.50;99.90;;;;;;5061777;28;20037;-83
2022/04/20 08:18:46;;;;;;;6.95;2.47;;;12.60;99.90;;;;;;5070435;28;20519;-83
2022/04/20 08:21:12;;;;;;;7.72;2.50;;;12.70;99.90;;;;;;5048495;28;20043;-82
2022/04/20 08:23:37;;;;;;;7.68;2.80;;;12.70;99.90;;;;;;5071935;28;20044;-82
2022/04/20 08:26:03;;;;;;;7.50;2.50;;;12.60;99.90;;;;;;5054688;28;20560;-83
2022/04/20 08:28:30;;;;;;;7.00;2.60;;;12.70;99.90;;;;;;5045191;28;20542;-82
2022/04/20 08:30:56;;;;;;;7.57;2.55;;;12.80;99.90;;;;;;5045417;28;20452;-83
2022/04/20 08:33:22;;;;;;;7.03;2.60;;;12.90;99.90;;;;;;5063930;28;20036;-83
2022/04/20 08:35:48;;;;;;;7.65;2.58;;;13.00;99.90;;;;;;5041654;28;20032;-83
2022/04/20 08:38:14;;;;;;;6.93;2.55;;;13.10;99.90;;;;;;5056087;28;20190;-83
2022/04/20 08:40:40;;;;;;;7.38;2.60;;;13.10;99.90;;;;;;5050749;28;20499;-83
2022/04/20 08:43:06;;;;;;;7.72;2.30;;;13.10;99.90;;;;;;5043089;28;20473;-82
2022/04/20 08:45:38;;;;;;;7.85;2.50;;;13.10;99.90;;;;;;5041066;28;20116;-83
2022/04/20 08:48:05;;;;;;;6.35;2.47;;;13.10;99.90;;;;;;5074955;28;20051;-82
2022/04/20 08:50:31;;;;;;;9.05;3.08;;;13.20;99.90;;;;;;5042040;28;20032;-82
2022/04/20 08:52:58;;;;;;;7.22;2.75;;;13.20;99.90;;;;;;5061485;28;20523;-83
2022/04/20 08:55:24;;;;;;;7.05;2.55;;;13.30;99.90;;;;;;5047239;28;20562;-82
2022/04/20 08:57:55;;;;;;;7.60;2.70;;;13.40;99.90;;;;;;5054044;28;20048;-83
2022/04/20 09:00:26;;;;;;;8.35;2.70;;;13.40;99.90;;;;;;5059733;28;20551;-82
2022/04/20 09:02:57;;;;;;;7.55;2.60;;;13.50;99.90;;;;;;5053523;28;20322;-81
2022/04/20 09:05:28;;;;;;;7.75;2.53;;;13.50;99.90;;;;;;5068097;28;20036;-82
2022/04/20 09:07:54;;;;;;;7.90;2.30;;;13.50;99.90;;;;;;5072757;28;20167;-83
2022/04/20 09:10:21;;;;;;;10.25;2.70;;;13.50;99.00;;;;;;5059720;28;20055;-83
2022/04/20 09:13:01;;;;;;;7.18;2.47;;;13.60;98.10;;;;;;5045676;28;20048;-83
2022/04/20 09:15:32;;;;;;;6.70;2.50;;;13.60;97.10;;;;;;5073580;28;20029;-83
2022/04/20 09:17:59;;;;;;;6.68;2.38;;;13.60;97.00;;;;;;5081158;28;20040;-82
2022/04/20 09:20:25;;;;;;;6.13;2.20;;;13.60;96.10;;;;;;5061973;28;20036;-82
2022/04/20 09:23:00;;;;;;;6.28;2.22;;;13.70;95.50;;;;;;5060857;28;20032;-83
2022/04/20 09:25:34;;;;;;;6.70;2.33;;;13.80;95.00;;;;;;5068705;28;20063;-83
2022/04/20 09:28:01;;;;;;;5.43;2.05;;;13.80;94.60;;;;;;5077317;28;20069;-82
2022/04/20 09:30:33;;;;;;;6.03;2.33;;;13.20;91.70;;;;;;5080989;28;20405;-82
2022/04/20 09:32:59;;;;;;;8.23;2.60;;;13.80;91.40;;;;;;5071638;28;20042;-82
2022/04/20 09:35:25;;;;;;;7.55;2.03;;;14.00;92.10;;;;;;5070938;28;20058;-82
2022/04/20 09:38:04;;;;;;;6.65;2.40;;;14.10;91.90;;;;;;5063448;28;20068;-83
2022/04/20 09:40:35;;;;;;;5.95;2.13;;;14.10;85.60;;;;;;5061074;28;20044;-83
2022/04/20 09:43:04;;;;;;;6.95;2.40;;;14.10;85.60;;;;;;5047771;28;20105;-83
2022/04/20 09:45:30;;;;;;;6.20;2.33;;;14.10;83.10;;;;;;5071878;28;20121;-82
2022/04/20 09:50:43;;;;;;;5.15;1.85;;;14.20;79.50;;;;;;5080582;28;20044;-82
2022/04/20 09:53:12;;;;;;;7.93;2.30;;;14.30;81.00;;;;;;5076950;28;20045;-83
2022/04/20 09:55:40;;;;;;;6.97;2.30;;;14.40;82.00;;;;;;5049932;28;20199;-82
2022/04/20 09:58:18;;;;;;;6.50;2.38;;;14.40;79.70;;;;;;5062193;28;20047;-82
2022/04/20 10:00:56;;;;;;;7.75;2.10;;;14.30;75.50;;;;;;5059304;28;20044;-83
2022/04/20 10:03:32;;;;;;;6.32;2.15;;;14.30;75.30;;;;;;5075213;28;20116;-81
2022/04/20 10:05:59;;;;;;;6.88;2.10;;;14.50;74.90;;;;;;5059676;28;20036;-83
2022/04/20 10:08:26;;;;;;;5.55;2.00;;;14.50;74.70;;;;;;5061683;28;20450;-83
2022/04/20 10:10:56;;;;;;;5.97;1.92;;;14.50;73.30;;;;;;5060687;28;20067;-83
2022/04/20 10:13:22;;;;;;;5.85;2.00;;;14.60;72.90;;;;;;5065642;28;20039;-82
2022/04/20 10:16:06;;;;;;;4.95;1.80;;;14.60;71.20;;;;;;5077169;28;20040;-82
2022/04/20 10:18:37;;;;;;;5.85;1.88;;;14.70;71.90;;;;;;5060269;28;20040;-82
2022/04/20 10:21:06;;;;;;;4.47;1.70;;;14.80;69.90;;;;;;5083737;28;20039;-82
2022/04/20 10:23:34;;;;;;;4.65;1.73;;;14.80;68.60;;;;;;5075086;28;20093;-83
2022/04/20 10:26:06;;;;;;;4.97;1.77;;;14.70;67.40;;;;;;5056582;28;20038;-83
2022/04/20 10:29:10;;;;;;;5.27;1.73;;;14.80;66.50;;;;;;5073113;28;20040;-82
2022/04/20 10:31:46;;;;;;;4.88;1.80;;;14.90;63.30;;;;;;5065191;28;20110;-82
2022/04/20 10:34:18;;;;;;;6.18;1.73;;;15.10;64.80;;;;;;5083789;28;20070;-82
2022/04/20 10:36:56;;;;;;;4.82;1.60;;;15.20;64.90;;;;;;5066027;28;20051;-82
2022/04/20 10:39:24;;;;;;;4.13;1.60;;;15.20;64.80;;;;;;5056071;28;20167;-82
2022/04/20 10:42:11;;;;;;;5.35;1.77;;;15.30;64.20;;;;;;5063013;28;20037;-83
2022/04/20 10:45:07;;;;;;;4.40;1.58;;;15.40;62.70;;;;;;5078025;28;20032;-82
2022/04/20 10:47:36;;;;;;;4.57;1.50;;;15.50;63.70;;;;;;5063449;28;20048;-83
2022/04/20 10:50:22;;;;;;;5.90;1.65;;;15.50;63.70;;;;;;5069071;28;20043;-83
2022/04/20 10:53:02;;;;;;;4.45;1.40;;;15.60;61.40;;;;;;5062646;28;20036;-82
2022/04/20 10:55:31;;;;;;;4.32;1.40;;;15.60;62.00;;;;;;5072980;28;20076;-83
2022/04/20 10:58:02;;;;;;;4.80;1.80;;;15.70;62.40;;;;;;5054528;28;20048;-83
2022/04/20 11:00:34;;;;;;;3.25;1.40;;;15.70;62.40;;;;;;5054918;28;20454;-83
2022/04/20 11:03:05;;;;;;;5.80;1.70;;;15.60;60.50;;;;;;5083423;28;20058;-83
2022/04/20 11:05:32;;;;;;;3.95;1.50;;;15.60;61.70;;;;;;5048132;28;20529;-83
2022/04/20 11:08:14;;;;;;;5.45;1.67;;;15.70;62.20;;;;;;5081243;28;20040;-82
2022/04/20 11:19:48;;;;;;;5.40;1.70;;;16.00;63.00;;;;;;5081702;28;20040;-83
2022/04/20 11:22:14;;;;;;;4.68;1.50;;;16.20;62.80;;;;;;5070888;28;20043;-83
2022/04/20 11:24:40;;;;;;;4.45;1.55;;;16.20;61.90;;;;;;5065882;28;20028;-84
2022/04/20 11:27:06;;;;;;;6.22;1.80;;;16.30;61.50;;;;;;5067252;28;20115;-83
2022/04/20 11:29:33;;;;;;;3.58;1.50;;;16.40;61.50;;;;;;5060593;28;20056;-83
2022/04/20 11:32:04;;;;;;;4.30;1.60;;;16.40;61.70;;;;;;5024964;28;20048;-82
2022/04/20 11:34:35;;;;;;;5.03;1.80;;;16.50;61.20;;;;;;5081816;28;20044;-83
2022/04/20 11:37:04;;;;;;;3.67;1.55;;;16.40;62.10;;;;;;5051569;28;20047;-84
2022/04/20 11:39:30;;;;;;;6.45;1.67;;;16.40;61.90;;;;;;5064125;28;20173;-84
2022/04/20 11:41:59;;;;;;;4.18;1.70;;;16.40;62.00;;;;;;5050819;28;20565;-83
2022/04/20 11:44:26;;;;;;;3.92;1.60;;;16.40;60.70;;;;;;5070609;28;20404;-83
2022/04/20 11:46:56;;;;;;;7.00;1.70;;;16.40;61.50;;;;;;5063603;28;20062;-83
2022/04/20 11:49:28;;;;;;;4.38;1.60;;;16.60;62.70;;;;;;5066558;28;20250;-83
2022/04/20 11:51:57;;;;;;;4.05;1.40;;;16.60;61.00;;;;;;5042237;28;20044;-83
2022/04/20 11:54:24;;;;;;;5.82;1.80;;;16.70;61.40;;;;;;5051968;28;21798;-83
2022/04/20 11:56:50;;;;;;;4.28;1.50;;;16.60;60.50;;;;;;5055123;28;20042;-82
2022/04/20 11:59:21;;;;;;;4.90;1.70;;;16.60;61.10;;;;;;5053158;28;20052;-84
2022/04/20 12:01:47;;;;;;;4.25;1.60;;;16.70;60.90;;;;;;5036130;28;20565;-84
2022/04/20 12:04:22;;;;;;;3.90;1.50;;;16.70;60.50;;;;;;5059517;28;20110;-83
2022/04/20 12:06:53;;;;;;;5.93;1.60;;;16.60;60.40;;;;;;5058666;28;20090;-83
2022/04/20 12:09:24;;;;;;;4.40;1.70;;;16.70;61.50;;;;;;5080202;28;20101;-83
2022/04/20 12:12:01;;;;;;;4.57;1.60;;;16.80;61.30;;;;;;5057409;28;20040;-83
2022/04/20 12:14:32;;;;;;;5.15;1.80;;;16.90;60.60;;;;;;5076248;28;20033;-82
2022/04/20 12:17:01;;;;;;;4.97;1.75;;;16.90;60.30;;;;;;5063557;28;20493;-83
2022/04/20 12:19:28;;;;;;;4.55;1.70;;;16.90;60.40;;;;;;5066381;28;20115;-83
2022/04/20 12:21:54;;;;;;;5.32;1.80;;;16.90;60.80;;;;;;5054747;28;20440;-83
2022/04/20 12:24:21;;;;;;;4.70;1.63;;;16.80;60.20;;;;;;5075247;28;20032;-84
2022/04/20 12:26:49;;;;;;;5.20;1.60;;;16.90;59.70;;;;;;5062043;28;20503;-82
2022/04/20 12:29:18;;;;;;;3.30;1.40;;;17.00;60.40;;;;;;5081919;28;20165;-84
2022/04/20 12:31:45;;;;;;;4.63;1.50;;;16.90;59.50;;;;;;5067213;28;20133;-84
2022/04/20 12:34:15;;;;;;;5.70;1.80;;;16.90;60.40;;;;;;5078411;28;20079;-84
2022/04/20 12:36:51;;;;;;;3.83;1.65;;;16.90;60.50;;;;;;5061598;28;20123;-84
2022/04/20 12:39:23;;;;;;;4.75;1.70;;;16.90;61.10;;;;;;5046850;28;20119;-84
2022/04/20 12:41:52;;;;;;;5.10;1.88;;;17.00;61.20;;;;;;5057846;28;20076;-83
2022/04/20 12:44:40;;;;;;;5.03;1.70;;;17.20;61.40;;;;;;5062608;28;20047;-83
2022/04/20 12:47:11;;;;;;;5.97;1.80;;;17.20;59.60;;;;;;5077032;28;20035;-83
2022/04/20 12:49:43;;;;;;;4.72;1.70;;;17.20;59.70;;;;;;5067701;28;20047;-83
2022/04/20 12:52:22;;;;;;;5.10;1.60;;;17.20;60.40;;;;;;5081874;28;20493;-83
2022/04/20 12:55:08;;;;;;;4.90;1.80;;;17.20;60.20;;;;;;5071369;28;20392;-83
2022/04/20 13:03:16;;;;;;;4.72;1.52;;;17.10;59.70;;;;;;5083388;28;20032;-82
2022/04/20 13:05:44;;;;;;;7.47;1.90;;;17.20;60.50;;;;;;5067947;28;20035;-83
2022/04/20 13:08:12;;;;;;;4.53;1.70;;;17.20;60.20;;;;;;5060420;28;20074;-83
2022/04/20 13:10:43;;;;;;;5.20;1.95;;;17.30;59.70;;;;;;5086688;28;20044;-82
2022/04/20 13:13:09;;;;;;;5.90;1.90;;;17.30;59.70;;;;;;5075112;28;20040;-82
2022/04/20 13:15:35;;;;;;;6.65;2.17;;;17.40;60.60;;;;;;5063021;28;20581;-83
2022/04/20 13:18:01;;;;;;;5.47;2.05;;;17.50;60.90;;;;;;5051736;28;20048;-83
2022/04/20 13:20:28;;;;;;;6.82;2.45;;;17.50;60.60;;;;;;5067112;28;20071;-82
2022/04/20 13:22:58;;;;;;;6.45;2.30;;;17.50;60.80;;;;;;5070544;28;20489;-82
2022/04/20 13:28:08;;;;;;;5.72;1.95;;;17.50;62.00;;;;;;5045748;28;20400;-82
2022/04/20 13:30:36;;;;;;;6.35;2.30;;;17.60;61.80;;;;;;5069690;28;20039;-82
2022/04/20 13:33:13;;;;;;;6.85;2.42;;;17.50;62.00;;;;;;5069638;28;20036;-83
2022/04/20 13:35:40;;;;;;;7.07;2.33;;;17.70;62.90;;;;;;5072701;28;20443;-82